sensor_id;sensor_type;location;lat;lon;timestamp;pressure;altitude;pressure_sealevel;temperature
69857;BMP280;57147;53.582;10.112;2024-02-23T00:00:35;97758.16;;;9.10
69857;BMP280;57147;53.582;10.112;2024-02-23T00:05:35;97778.47;;;9.06
69857;BMP280;57147;53.582;10.112;2024-02-23T00:10:35;97759.97;;;9.06
69857;BMP280;57147;53.582;10.112;2024-02-23T00:15:36;97777.53;;;8.95
69857;BMP280;57147;53.582;10.112;2024-02-23T00:20:36;97811.16;;;8.95
69857;BMP280;57147;53.582;10.112;2024-02-23T00:25:36;97805.22;;;8.82
69857;BMP280;57147;53.582;10.112;2024-02-23T00:30:36;97802.00;;;8.73
69857;BMP280;57147;53.582;10.112;2024-02-23T00:35:37;97806.75;;;8.64
69857;BMP280;57147;53.582;10.112;2024-02-23T00:40:37;97797.97;;;8.60
69857;BMP280;57147;53.582;10.112;2024-02-23T00:45:37;97796.31;;;8.52
69857;BMP280;57147;53.582;10.112;2024-02-23T00:50:37;97827.59;;;8.50
69857;BMP280;57147;53.582;10.112;2024-02-23T00:55:38;97855.13;;;8.49
69857;BMP280;57147;53.582;10.112;2024-02-23T01:00:38;97898.50;;;8.28
69857;BMP280;57147;53.582;10.112;2024-02-23T01:05:38;97890.22;;;7.39
69857;BMP280;57147;53.582;10.112;2024-02-23T01:10:38;97860.28;;;6.67
69857;BMP280;57147;53.582;10.112;2024-02-23T01:15:39;97882.69;;;6.61
69857;BMP280;57147;53.582;10.112;2024-02-23T01:20:39;97873.47;;;6.31
69857;BMP280;57147;53.582;10.112;2024-02-23T01:25:39;97878.97;;;6.50
69857;BMP280;57147;53.582;10.112;2024-02-23T01:30:40;97919.16;;;6.47
69857;BMP280;57147;53.582;10.112;2024-02-23T01:35:40;97921.38;;;6.45
69857;BMP280;57147;53.582;10.112;2024-02-23T01:40:40;97932.44;;;6.38
69857;BMP280;57147;53.582;10.112;2024-02-23T01:45:41;97963.84;;;6.43
69857;BMP280;57147;53.582;10.112;2024-02-23T01:50:42;97992.06;;;6.43
69857;BMP280;57147;53.582;10.112;2024-02-23T01:55:45;98002.59;;;6.43
69857;BMP280;57147;53.582;10.112;2024-02-23T02:00:45;98044.63;;;6.39
69857;BMP280;57147;53.582;10.112;2024-02-23T02:05:46;98063.50;;;6.41
69857;BMP280;57147;53.582;10.112;2024-02-23T02:10:47;98096.50;;;6.27
69857;BMP280;57147;53.582;10.112;2024-02-23T02:15:47;98118.59;;;6.13
69857;BMP280;57147;53.582;10.112;2024-02-23T02:20:52;98148.09;;;6.28
69857;BMP280;57147;53.582;10.112;2024-02-23T02:25:57;98172.34;;;6.12
69857;BMP280;57147;53.582;10.112;2024-02-23T02:30:58;98171.72;;;6.16
69857;BMP280;57147;53.582;10.112;2024-02-23T02:35:58;98166.00;;;6.13
69857;BMP280;57147;53.582;10.112;2024-02-23T02:40:59;98205.91;;;5.95
69857;BMP280;57147;53.582;10.112;2024-02-23T02:45:59;98229.25;;;5.75
69857;BMP280;57147;53.582;10.112;2024-02-23T02:50:59;98251.94;;;5.89
69857;BMP280;57147;53.582;10.112;2024-02-23T02:56:00;98245.94;;;5.88
69857;BMP280;57147;53.582;10.112;2024-02-23T03:01:00;98257.44;;;5.75
69857;BMP280;57147;53.582;10.112;2024-02-23T03:06:00;98274.50;;;5.69
69857;BMP280;57147;53.582;10.112;2024-02-23T03:11:00;98301.63;;;5.61
69857;BMP280;57147;53.582;10.112;2024-02-23T03:16:01;98312.41;;;5.68
69857;BMP280;57147;53.582;10.112;2024-02-23T03:21:01;98321.44;;;5.41
69857;BMP280;57147;53.582;10.112;2024-02-23T03:26:01;98331.34;;;5.44
69857;BMP280;57147;53.582;10.112;2024-02-23T03:31:02;98342.94;;;5.43
69857;BMP280;57147;53.582;10.112;2024-02-23T03:36:03;98355.66;;;5.32
69857;BMP280;57147;53.582;10.112;2024-02-23T03:41:03;98379.47;;;5.45
69857;BMP280;57147;53.582;10.112;2024-02-23T03:46:05;98347.28;;;5.13
69857;BMP280;57147;53.582;10.112;2024-02-23T03:51:08;98363.06;;;5.13
69857;BMP280;57147;53.582;10.112;2024-02-23T03:56:08;98403.91;;;5.19
69857;BMP280;57147;53.582;10.112;2024-02-23T04:01:09;98407.00;;;5.21
69857;BMP280;57147;53.582;10.112;2024-02-23T04:06:09;98423.06;;;5.11
69857;BMP280;57147;53.582;10.112;2024-02-23T04:11:12;98447.50;;;5.03
69857;BMP280;57147;53.582;10.112;2024-02-23T04:16:13;98454.59;;;4.94
69857;BMP280;57147;53.582;10.112;2024-02-23T04:21:13;98463.88;;;5.00
69857;BMP280;57147;53.582;10.112;2024-02-23T04:26:13;98490.00;;;4.96
69857;BMP280;57147;53.582;10.112;2024-02-23T04:31:14;98483.03;;;4.92
69857;BMP280;57147;53.582;10.112;2024-02-23T04:36:14;98510.41;;;4.99
69857;BMP280;57147;53.582;10.112;2024-02-23T04:41:14;98506.53;;;4.97
69857;BMP280;57147;53.582;10.112;2024-02-23T04:46:19;98526.53;;;5.07
69857;BMP280;57147;53.582;10.112;2024-02-23T04:51:19;98525.41;;;4.99
69857;BMP280;57147;53.582;10.112;2024-02-23T04:56:20;98515.53;;;4.96
69857;BMP280;57147;53.582;10.112;2024-02-23T05:01:20;98529.28;;;4.93
69857;BMP280;57147;53.582;10.112;2024-02-23T05:06:20;98545.16;;;4.88
69857;BMP280;57147;53.582;10.112;2024-02-23T05:11:20;98551.38;;;4.92
69857;BMP280;57147;53.582;10.112;2024-02-23T05:16:21;98563.13;;;4.86
69857;BMP280;57147;53.582;10.112;2024-02-23T05:21:21;98572.53;;;4.87
69857;BMP280;57147;53.582;10.112;2024-02-23T05:26:21;98575.78;;;4.84
69857;BMP280;57147;53.582;10.112;2024-02-23T05:32:14;98589.41;;;4.86
69857;BMP280;57147;53.582;10.112;2024-02-23T05:37:08;98576.63;;;4.71
69857;BMP280;57147;53.582;10.112;2024-02-23T05:42:08;98606.09;;;4.81
69857;BMP280;57147;53.582;10.112;2024-02-23T05:47:08;98615.47;;;4.74
69857;BMP280;57147;53.582;10.112;2024-02-23T05:52:08;98620.00;;;4.82
69857;BMP280;57147;53.582;10.112;2024-02-23T05:57:09;98648.75;;;4.87
69857;BMP280;57147;53.582;10.112;2024-02-23T06:02:09;98645.22;;;4.83
69857;BMP280;57147;53.582;10.112;2024-02-23T06:07:09;98664.03;;;4.76
69857;BMP280;57147;53.582;10.112;2024-02-23T06:12:09;98685.41;;;4.83
69857;BMP280;57147;53.582;10.112;2024-02-23T06:17:10;98688.19;;;4.87
69857;BMP280;57147;53.582;10.112;2024-02-23T06:22:10;98701.94;;;4.84
69857;BMP280;57147;53.582;10.112;2024-02-23T06:27:10;98722.81;;;4.80
69857;BMP280;57147;53.582;10.112;2024-02-23T06:32:10;98729.78;;;4.85
69857;BMP280;57147;53.582;10.112;2024-02-23T06:37:11;98736.53;;;4.77
69857;BMP280;57147;53.582;10.112;2024-02-23T06:42:11;98750.69;;;4.68
69857;BMP280;57147;53.582;10.112;2024-02-23T06:47:11;98770.75;;;4.63
69857;BMP280;57147;53.582;10.112;2024-02-23T06:52:11;98764.63;;;4.68
69857;BMP280;57147;53.582;10.112;2024-02-23T06:57:12;98771.03;;;4.62
69857;BMP280;57147;53.582;10.112;2024-02-23T07:02:12;98780.38;;;4.68
69857;BMP280;57147;53.582;10.112;2024-02-23T07:07:12;98795.25;;;4.73
69857;BMP280;57147;53.582;10.112;2024-02-23T07:12:12;98813.34;;;4.74
69857;BMP280;57147;53.582;10.112;2024-02-23T07:17:16;98817.34;;;4.72
69857;BMP280;57147;53.582;10.112;2024-02-23T07:22:17;98809.72;;;4.84
69857;BMP280;57147;53.582;10.112;2024-02-23T07:27:17;98825.63;;;5.01
69857;BMP280;57147;53.582;10.112;2024-02-23T07:32:17;98825.84;;;5.05
69857;BMP280;57147;53.582;10.112;2024-02-23T07:37:18;98828.75;;;5.03
69857;BMP280;57147;53.582;10.112;2024-02-23T07:42:18;98842.88;;;5.07
69857;BMP280;57147;53.582;10.112;2024-02-23T07:47:21;98840.50;;;5.19
69857;BMP280;57147;53.582;10.112;2024-02-23T07:52:21;98852.19;;;5.13
69857;BMP280;57147;53.582;10.112;2024-02-23T07:57:22;98855.50;;;5.19
69857;BMP280;57147;53.582;10.112;2024-02-23T08:02:22;98862.13;;;5.16
69857;BMP280;57147;53.582;10.112;2024-02-23T08:07:22;98859.78;;;5.15
69857;BMP280;57147;53.582;10.112;2024-02-23T08:12:22;98863.50;;;5.14
69857;BMP280;57147;53.582;10.112;2024-02-23T08:17:23;98900.25;;;5.41
69857;BMP280;57147;53.582;10.112;2024-02-23T08:22:23;98901.41;;;5.49
69857;BMP280;57147;53.582;10.112;2024-02-23T08:27:23;98930.22;;;5.54
69857;BMP280;57147;53.582;10.112;2024-02-23T08:32:24;98924.38;;;5.57
69857;BMP280;57147;53.582;10.112;2024-02-23T08:37:24;98920.44;;;5.68
69857;BMP280;57147;53.582;10.112;2024-02-23T08:42:24;98930.50;;;5.66
69857;BMP280;57147;53.582;10.112;2024-02-23T08:47:24;98931.78;;;5.77
69857;BMP280;57147;53.582;10.112;2024-02-23T08:52:25;98944.94;;;5.77
69857;BMP280;57147;53.582;10.112;2024-02-23T08:57:25;98953.31;;;5.79
69857;BMP280;57147;53.582;10.112;2024-02-23T09:02:25;98838.19;;;5.04
69857;BMP280;57147;53.582;10.112;2024-02-23T09:07:25;98962.00;;;6.02
69857;BMP280;57147;53.582;10.112;2024-02-23T09:12:26;98976.19;;;6.15
69857;BMP280;57147;53.582;10.112;2024-02-23T09:17:26;98982.19;;;6.29
69857;BMP280;57147;53.582;10.112;2024-02-23T09:22:26;98976.47;;;6.35
69857;BMP280;57147;53.582;10.112;2024-02-23T09:27:26;98982.69;;;6.39
69857;BMP280;57147;53.582;10.112;2024-02-23T09:32:27;99006.47;;;6.48
69857;BMP280;57147;53.582;10.112;2024-02-23T09:37:27;99015.03;;;6.54
69857;BMP280;57147;53.582;10.112;2024-02-23T09:42:28;99025.78;;;6.66
69857;BMP280;57147;53.582;10.112;2024-02-23T09:47:28;99033.50;;;6.62
69857;BMP280;57147;53.582;10.112;2024-02-23T09:52:29;99039.41;;;6.59
69857;BMP280;57147;53.582;10.112;2024-02-23T09:57:29;99059.63;;;6.72
69857;BMP280;57147;53.582;10.112;2024-02-23T10:02:29;99073.63;;;6.81
69857;BMP280;57147;53.582;10.112;2024-02-23T10:07:30;99071.53;;;7.01
69857;BMP280;57147;53.582;10.112;2024-02-23T10:12:30;99084.03;;;7.17
69857;BMP280;57147;53.582;10.112;2024-02-23T10:17:31;99088.22;;;7.10
69857;BMP280;57147;53.582;10.112;2024-02-23T10:22:31;99097.22;;;7.17
69857;BMP280;57147;53.582;10.112;2024-02-23T10:27:32;99094.88;;;7.16
69857;BMP280;57147;53.582;10.112;2024-02-23T10:32:32;99120.75;;;7.36
69857;BMP280;57147;53.582;10.112;2024-02-23T10:37:34;99118.75;;;7.50
69857;BMP280;57147;53.582;10.112;2024-02-23T10:42:36;99125.13;;;7.49
69857;BMP280;57147;53.582;10.112;2024-02-23T10:47:38;99135.88;;;7.70
69857;BMP280;57147;53.582;10.112;2024-02-23T10:52:39;99130.03;;;7.90
69857;BMP280;57147;53.582;10.112;2024-02-23T10:57:40;99129.38;;;7.93
69857;BMP280;57147;53.582;10.112;2024-02-23T11:02:46;99145.88;;;7.90
69857;BMP280;57147;53.582;10.112;2024-02-23T11:07:48;99129.38;;;7.85
69857;BMP280;57147;53.582;10.112;2024-02-23T11:12:57;99144.44;;;7.76
69857;BMP280;57147;53.582;10.112;2024-02-23T11:17:57;99143.81;;;7.70
69857;BMP280;57147;53.582;10.112;2024-02-23T11:22:57;99159.19;;;7.68
69857;BMP280;57147;53.582;10.112;2024-02-23T11:27:58;99146.59;;;7.74
69857;BMP280;57147;53.582;10.112;2024-02-23T11:32:59;99149.81;;;7.62
69857;BMP280;57147;53.582;10.112;2024-02-23T11:38:03;99135.69;;;7.58
69857;BMP280;57147;53.582;10.112;2024-02-23T11:43:04;99135.88;;;7.70
69857;BMP280;57147;53.582;10.112;2024-02-23T11:48:05;99120.19;;;7.74
69857;BMP280;57147;53.582;10.112;2024-02-23T11:53:06;99121.44;;;7.85
69857;BMP280;57147;53.582;10.112;2024-02-23T11:58:06;99132.03;;;8.02
69857;BMP280;57147;53.582;10.112;2024-02-23T12:03:06;99118.03;;;8.02
69857;BMP280;57147;53.582;10.112;2024-02-23T12:08:07;99123.63;;;8.00
69857;BMP280;57147;53.582;10.112;2024-02-23T12:13:07;99124.09;;;8.02
69857;BMP280;57147;53.582;10.112;2024-02-23T12:18:10;99133.09;;;7.92
69857;BMP280;57147;53.582;10.112;2024-02-23T12:23:11;99125.81;;;7.81
69857;BMP280;57147;53.582;10.112;2024-02-23T12:28:11;99143.97;;;7.74
69857;BMP280;57147;53.582;10.112;2024-02-23T12:33:15;99135.44;;;7.94
69857;BMP280;57147;53.582;10.112;2024-02-23T12:38:15;99140.44;;;8.04
69857;BMP280;57147;53.582;10.112;2024-02-23T12:43:15;99146.97;;;7.98
69857;BMP280;57147;53.582;10.112;2024-02-23T12:48:16;99137.66;;;8.09
69857;BMP280;57147;53.582;10.112;2024-02-23T12:53:36;99135.03;;;8.09
69857;BMP280;57147;53.582;10.112;2024-02-23T12:58:43;99143.88;;;8.13
69857;BMP280;57147;53.582;10.112;2024-02-23T13:03:44;99147.44;;;8.09
69857;BMP280;57147;53.582;10.112;2024-02-23T13:08:44;99170.91;;;8.10
69857;BMP280;57147;53.582;10.112;2024-02-23T13:13:44;99168.44;;;8.05
69857;BMP280;57147;53.582;10.112;2024-02-23T13:18:44;99173.53;;;8.10
69857;BMP280;57147;53.582;10.112;2024-02-23T13:23:45;99173.09;;;8.08
69857;BMP280;57147;53.582;10.112;2024-02-23T13:28:45;99175.25;;;8.06
69857;BMP280;57147;53.582;10.112;2024-02-23T13:33:45;99176.84;;;8.16
69857;BMP280;57147;53.582;10.112;2024-02-23T13:38:46;99180.88;;;8.13
69857;BMP280;57147;53.582;10.112;2024-02-23T13:43:46;99181.81;;;8.17
69857;BMP280;57147;53.582;10.112;2024-02-23T13:49:00;99187.72;;;8.14
69857;BMP280;57147;53.582;10.112;2024-02-23T13:54:01;99195.81;;;8.09
69857;BMP280;57147;53.582;10.112;2024-02-23T13:59:01;99194.25;;;8.08
69857;BMP280;57147;53.582;10.112;2024-02-23T14:04:06;99203.72;;;8.09
69857;BMP280;57147;53.582;10.112;2024-02-23T14:09:06;99200.75;;;8.02
69857;BMP280;57147;53.582;10.112;2024-02-23T14:14:06;99203.25;;;8.07
69857;BMP280;57147;53.582;10.112;2024-02-23T14:19:07;99205.41;;;8.05
69857;BMP280;57147;53.582;10.112;2024-02-23T14:24:07;99181.16;;;8.03
69857;BMP280;57147;53.582;10.112;2024-02-23T14:29:07;99178.09;;;8.18
69857;BMP280;57147;53.582;10.112;2024-02-23T14:34:08;99187.72;;;8.31
69857;BMP280;57147;53.582;10.112;2024-02-23T14:39:11;99181.63;;;8.57
69857;BMP280;57147;53.582;10.112;2024-02-23T14:44:11;99178.97;;;8.57
69857;BMP280;57147;53.582;10.112;2024-02-23T14:49:11;99175.41;;;8.70
69857;BMP280;57147;53.582;10.112;2024-02-23T14:54:12;99192.97;;;8.66
69857;BMP280;57147;53.582;10.112;2024-02-23T14:59:12;99189.72;;;8.60
69857;BMP280;57147;53.582;10.112;2024-02-23T15:04:12;99196.09;;;8.68
69857;BMP280;57147;53.582;10.112;2024-02-23T15:09:13;99192.84;;;8.62
69857;BMP280;57147;53.582;10.112;2024-02-23T15:14:13;99197.34;;;8.45
69857;BMP280;57147;53.582;10.112;2024-02-23T15:19:13;99213.06;;;8.41
69857;BMP280;57147;53.582;10.112;2024-02-23T15:24:14;99213.84;;;8.42
69857;BMP280;57147;53.582;10.112;2024-02-23T15:29:14;99213.53;;;8.34
69857;BMP280;57147;53.582;10.112;2024-02-23T15:34:15;99215.09;;;8.35
69857;BMP280;57147;53.582;10.112;2024-02-23T15:39:15;99220.38;;;8.35
69857;BMP280;57147;53.582;10.112;2024-02-23T15:44:15;99213.84;;;8.24
69857;BMP280;57147;53.582;10.112;2024-02-23T15:49:15;99233.13;;;8.33
69857;BMP280;57147;53.582;10.112;2024-02-23T15:54:16;99223.63;;;8.32
69857;BMP280;57147;53.582;10.112;2024-02-23T15:59:16;99231.75;;;8.27
69857;BMP280;57147;53.582;10.112;2024-02-23T16:04:16;99226.13;;;8.20
69857;BMP280;57147;53.582;10.112;2024-02-23T16:09:16;99216.00;;;8.14
69857;BMP280;57147;53.582;10.112;2024-02-23T16:14:17;99241.38;;;8.23
69857;BMP280;57147;53.582;10.112;2024-02-23T16:19:17;99245.56;;;8.16
69857;BMP280;57147;53.582;10.112;2024-02-23T16:24:17;99243.69;;;8.16
69857;BMP280;57147;53.582;10.112;2024-02-23T16:29:18;99251.63;;;8.16
69857;BMP280;57147;53.582;10.112;2024-02-23T16:34:18;99246.81;;;8.18
69857;BMP280;57147;53.582;10.112;2024-02-23T16:39:18;99256.91;;;8.16
69857;BMP280;57147;53.582;10.112;2024-02-23T16:44:18;99253.00;;;8.05
69857;BMP280;57147;53.582;10.112;2024-02-23T16:49:19;99269.94;;;8.04
69857;BMP280;57147;53.582;10.112;2024-02-23T16:54:19;99274.75;;;8.02
69857;BMP280;57147;53.582;10.112;2024-02-23T16:59:19;99266.94;;;7.88
69857;BMP280;57147;53.582;10.112;2024-02-23T17:04:19;99270.06;;;7.90
69857;BMP280;57147;53.582;10.112;2024-02-23T17:09:20;99273.16;;;7.92
69857;BMP280;57147;53.582;10.112;2024-02-23T17:14:20;99297.59;;;7.98
69857;BMP280;57147;53.582;10.112;2024-02-23T17:19:20;99259.03;;;7.57
69857;BMP280;57147;53.582;10.112;2024-02-23T17:24:20;99365.06;;;7.73
69857;BMP280;57147;53.582;10.112;2024-02-23T17:29:21;99345.84;;;7.28
69857;BMP280;57147;53.582;10.112;2024-02-23T17:34:21;99313.72;;;6.90
69857;BMP280;57147;53.582;10.112;2024-02-23T17:39:21;99341.56;;;6.96
69857;BMP280;57147;53.582;10.112;2024-02-23T17:44:21;99340.28;;;6.94
69857;BMP280;57147;53.582;10.112;2024-02-23T17:49:22;99333.44;;;6.93
69857;BMP280;57147;53.582;10.112;2024-02-23T17:54:22;99330.09;;;7.01
69857;BMP280;57147;53.582;10.112;2024-02-23T17:59:22;99329.13;;;6.97
69857;BMP280;57147;53.582;10.112;2024-02-23T18:04:23;99312.56;;;6.82
69857;BMP280;57147;53.582;10.112;2024-02-23T18:09:23;99344.78;;;6.93
69857;BMP280;57147;53.582;10.112;2024-02-23T18:14:23;99338.22;;;6.91
69857;BMP280;57147;53.582;10.112;2024-02-23T18:19:24;99337.47;;;6.90
69857;BMP280;57147;53.582;10.112;2024-02-23T18:24:24;99337.75;;;6.89
69857;BMP280;57147;53.582;10.112;2024-02-23T18:29:25;99347.69;;;6.92
69857;BMP280;57147;53.582;10.112;2024-02-23T18:34:25;99349.09;;;6.89
69857;BMP280;57147;53.582;10.112;2024-02-23T18:39:25;99358.75;;;6.94
69857;BMP280;57147;53.582;10.112;2024-02-23T18:44:25;99369.78;;;6.96
69857;BMP280;57147;53.582;10.112;2024-02-23T18:49:26;99377.78;;;6.91
69857;BMP280;57147;53.582;10.112;2024-02-23T18:54:26;99379.97;;;6.89
69857;BMP280;57147;53.582;10.112;2024-02-23T18:59:26;99387.75;;;6.94
69857;BMP280;57147;53.582;10.112;2024-02-23T19:04:27;99388.47;;;6.85
69857;BMP280;57147;53.582;10.112;2024-02-23T19:09:27;99388.56;;;6.80
69857;BMP280;57147;53.582;10.112;2024-02-23T19:14:27;99394.03;;;6.70
69857;BMP280;57147;53.582;10.112;2024-02-23T19:19:28;99400.09;;;6.71
69857;BMP280;57147;53.582;10.112;2024-02-23T19:24:28;99397.19;;;6.59
69857;BMP280;57147;53.582;10.112;2024-02-23T19:29:29;99338.03;;;6.24
69857;BMP280;57147;53.582;10.112;2024-02-23T19:34:29;99390.56;;;6.47
69857;BMP280;57147;53.582;10.112;2024-02-23T19:39:30;99401.88;;;6.48
69857;BMP280;57147;53.582;10.112;2024-02-23T19:44:30;99401.50;;;6.41
69857;BMP280;57147;53.582;10.112;2024-02-23T19:49:30;99392.50;;;6.42
69857;BMP280;57147;53.582;10.112;2024-02-23T19:54:30;99399.84;;;6.45
69857;BMP280;57147;53.582;10.112;2024-02-23T19:59:31;99414.19;;;6.39
69857;BMP280;57147;53.582;10.112;2024-02-23T20:04:31;99406.38;;;6.34
69857;BMP280;57147;53.582;10.112;2024-02-23T20:09:31;99409.59;;;6.31
69857;BMP280;57147;53.582;10.112;2024-02-23T20:14:31;99402.25;;;6.28
69857;BMP280;57147;53.582;10.112;2024-02-23T20:19:31;99414.16;;;6.25
69857;BMP280;57147;53.582;10.112;2024-02-23T20:24:32;99415.31;;;6.19
69857;BMP280;57147;53.582;10.112;2024-02-23T20:29:32;99416.28;;;6.09
69857;BMP280;57147;53.582;10.112;2024-02-23T20:34:32;99413.16;;;6.07
69857;BMP280;57147;53.582;10.112;2024-02-23T20:39:33;99424.53;;;6.03
69857;BMP280;57147;53.582;10.112;2024-02-23T20:44:33;99426.50;;;5.97
69857;BMP280;57147;53.582;10.112;2024-02-23T20:49:33;99425.72;;;5.97
69857;BMP280;57147;53.582;10.112;2024-02-23T20:54:33;99434.47;;;5.92
69857;BMP280;57147;53.582;10.112;2024-02-23T20:59:34;99421.69;;;5.86
69857;BMP280;57147;53.582;10.112;2024-02-23T21:04:34;99426.16;;;5.85
69857;BMP280;57147;53.582;10.112;2024-02-23T21:09:35;99412.38;;;5.74
69857;BMP280;57147;53.582;10.112;2024-02-23T21:14:35;99440.78;;;5.91
69857;BMP280;57147;53.582;10.112;2024-02-23T21:19:35;99455.03;;;5.90
69857;BMP280;57147;53.582;10.112;2024-02-23T21:24:35;99464.50;;;5.91
69857;BMP280;57147;53.582;10.112;2024-02-23T21:29:36;99467.22;;;5.86
69857;BMP280;57147;53.582;10.112;2024-02-23T21:34:36;99453.13;;;5.77
69857;BMP280;57147;53.582;10.112;2024-02-23T21:39:36;99460.25;;;5.76
69857;BMP280;57147;53.582;10.112;2024-02-23T21:44:37;99469.50;;;5.74
69857;BMP280;57147;53.582;10.112;2024-02-23T21:49:37;99462.22;;;5.71
69857;BMP280;57147;53.582;10.112;2024-02-23T21:54:37;99464.84;;;5.71
69857;BMP280;57147;53.582;10.112;2024-02-23T21:59:37;99462.78;;;5.68
69857;BMP280;57147;53.582;10.112;2024-02-23T22:04:38;99455.16;;;5.66
69857;BMP280;57147;53.582;10.112;2024-02-23T22:09:39;99458.97;;;5.74
69857;BMP280;57147;53.582;10.112;2024-02-23T22:14:39;99464.84;;;5.71
69857;BMP280;57147;53.582;10.112;2024-02-23T22:19:40;99465.50;;;5.76
69857;BMP280;57147;53.582;10.112;2024-02-23T22:24:40;99456.94;;;5.71
69857;BMP280;57147;53.582;10.112;2024-02-23T22:29:40;99467.28;;;5.81
69857;BMP280;57147;53.582;10.112;2024-02-23T22:34:41;99459.31;;;5.86
69857;BMP280;57147;53.582;10.112;2024-02-23T22:39:41;99462.66;;;5.92
69857;BMP280;57147;53.582;10.112;2024-02-23T22:44:41;99471.84;;;5.94
69857;BMP280;57147;53.582;10.112;2024-02-23T22:49:41;99466.00;;;5.97
69857;BMP280;57147;53.582;10.112;2024-02-23T22:54:42;99452.91;;;5.92
69857;BMP280;57147;53.582;10.112;2024-02-23T22:59:42;99469.13;;;5.99
69857;BMP280;57147;53.582;10.112;2024-02-23T23:04:42;99472.84;;;5.98
69857;BMP280;57147;53.582;10.112;2024-02-23T23:09:43;99467.91;;;5.92
69857;BMP280;57147;53.582;10.112;2024-02-23T23:14:43;99470.44;;;5.83
69857;BMP280;57147;53.582;10.112;2024-02-23T23:19:43;99473.13;;;5.78
69857;BMP280;57147;53.582;10.112;2024-02-23T23:24:43;99477.50;;;5.69
69857;BMP280;57147;53.582;10.112;2024-02-23T23:29:44;99474.94;;;5.64
69857;BMP280;57147;53.582;10.112;2024-02-23T23:34:44;99474.56;;;5.52
69857;BMP280;57147;53.582;10.112;2024-02-23T23:39:44;99476.50;;;5.46
69857;BMP280;57147;53.582;10.112;2024-02-23T23:44:44;99482.09;;;5.39
69857;BMP280;57147;53.582;10.112;2024-02-23T23:49:45;99486.38;;;5.35
69857;BMP280;57147;53.582;10.112;2024-02-23T23:54:45;99467.34;;;5.20
69857;BMP280;57147;53.582;10.112;2024-02-23T23:59:48;99492.19;;;5.32
